sensor_id;sensor_type;location;lat;lon;timestamp;P1;durP1;ratioP1;P2;durP2;ratioP2
45684;SDS011;46836;48.388;16.210;2023-03-16T00:00:47;2.28;;;1.70;;
45684;SDS011;46836;48.388;16.210;2023-03-16T00:03:14;1.77;;;1.67;;
45684;SDS011;46836;48.388;16.210;2023-03-16T00:05:48;1.85;;;1.70;;
45684;SDS011;46836;48.388;16.210;2023-03-16T00:08:18;2.17;;;1.90;;
45684;SDS011;46836;48.388;16.210;2023-03-16T00:10:46;2.00;;;1.83;;
45684;SDS011;46836;48.388;16.210;2023-03-16T00:13:17;1.77;;;1.67;;
45684;SDS011;46836;48.388;16.210;2023-03-16T00:15:50;1.45;;;1.40;;
45684;SDS011;46836;48.388;16.210;2023-03-16T00:18:33;1.83;;;1.73;;
45684;SDS011;46836;48.388;16.210;2023-03-16T00:21:04;1.73;;;1.50;;
45684;SDS011;46836;48.388;16.210;2023-03-16T00:23:32;2.75;;;1.88;;
45684;SDS011;46836;48.388;16.210;2023-03-16T00:26:03;2.15;;;1.92;;
45684;SDS011;46836;48.388;16.210;2023-03-16T00:28:33;2.65;;;2.03;;
45684;SDS011;46836;48.388;16.210;2023-03-16T00:31:01;3.10;;;2.20;;
45684;SDS011;46836;48.388;16.210;2023-03-16T00:33:33;1.67;;;1.58;;
45684;SDS011;46836;48.388;16.210;2023-03-16T00:36:03;2.83;;;2.00;;
45684;SDS011;46836;48.388;16.210;2023-03-16T00:38:35;2.58;;;2.10;;
45684;SDS011;46836;48.388;16.210;2023-03-16T00:41:06;2.50;;;2.30;;
45684;SDS011;46836;48.388;16.210;2023-03-16T00:43:35;2.70;;;2.50;;
45684;SDS011;46836;48.388;16.210;2023-03-16T00:46:12;3.20;;;2.35;;
45684;SDS011;46836;48.388;16.210;2023-03-16T00:48:41;3.97;;;2.20;;
45684;SDS011;46836;48.388;16.210;2023-03-16T00:51:11;2.70;;;2.50;;
45684;SDS011;46836;48.388;16.210;2023-03-16T00:53:42;2.28;;;2.17;;
45684;SDS011;46836;48.388;16.210;2023-03-16T00:56:11;4.63;;;2.85;;
45684;SDS011;46836;48.388;16.210;2023-03-16T00:58:39;2.38;;;2.17;;
45684;SDS011;46836;48.388;16.210;2023-03-16T01:01:12;2.30;;;2.10;;
45684;SDS011;46836;48.388;16.210;2023-03-16T01:03:44;3.10;;;2.45;;
45684;SDS011;46836;48.388;16.210;2023-03-16T01:06:13;3.00;;;2.70;;
45684;SDS011;46836;48.388;16.210;2023-03-16T01:08:42;2.22;;;2.03;;
45684;SDS011;46836;48.388;16.210;2023-03-16T01:11:12;3.85;;;2.30;;
45684;SDS011;46836;48.388;16.210;2023-03-16T01:13:42;2.60;;;2.40;;
45684;SDS011;46836;48.388;16.210;2023-03-16T01:16:09;2.22;;;2.13;;
45684;SDS011;46836;48.388;16.210;2023-03-16T01:18:36;2.72;;;2.47;;
45684;SDS011;46836;48.388;16.210;2023-03-16T01:21:05;2.10;;;1.83;;
45684;SDS011;46836;48.388;16.210;2023-03-16T01:23:35;2.30;;;2.10;;
45684;SDS011;46836;48.388;16.210;2023-03-16T01:26:02;1.92;;;1.83;;
45684;SDS011;46836;48.388;16.210;2023-03-16T01:28:30;2.28;;;2.17;;
45684;SDS011;46836;48.388;16.210;2023-03-16T01:30:59;3.88;;;2.22;;
45684;SDS011;46836;48.388;16.210;2023-03-16T01:33:29;2.92;;;2.47;;
45684;SDS011;46836;48.388;16.210;2023-03-16T01:38:31;2.45;;;2.20;;
45684;SDS011;46836;48.388;16.210;2023-03-16T01:40:59;2.53;;;2.28;;
45684;SDS011;46836;48.388;16.210;2023-03-16T01:43:27;2.22;;;2.13;;
45684;SDS011;46836;48.388;16.210;2023-03-16T01:48:46;4.40;;;2.65;;
45684;SDS011;46836;48.388;16.210;2023-03-16T01:57:22;3.13;;;2.80;;
45684;SDS011;46836;48.388;16.210;2023-03-16T02:02:37;3.13;;;2.80;;
45684;SDS011;46836;48.388;16.210;2023-03-16T02:05:13;5.53;;;3.35;;
45684;SDS011;46836;48.388;16.210;2023-03-16T02:07:46;4.72;;;3.22;;
45684;SDS011;46836;48.388;16.210;2023-03-16T02:10:16;4.13;;;3.20;;
45684;SDS011;46836;48.388;16.210;2023-03-16T02:12:44;3.95;;;3.55;;
45684;SDS011;46836;48.388;16.210;2023-03-16T02:15:13;5.28;;;3.58;;
45684;SDS011;46836;48.388;16.210;2023-03-16T02:17:40;3.35;;;3.05;;
45684;SDS011;46836;48.388;16.210;2023-03-16T02:20:16;5.75;;;3.25;;
45684;SDS011;46836;48.388;16.210;2023-03-16T02:22:57;5.60;;;3.38;;
45684;SDS011;46836;48.388;16.210;2023-03-16T02:25:28;4.40;;;3.55;;
45684;SDS011;46836;48.388;16.210;2023-03-16T02:28:17;3.28;;;2.42;;
45684;SDS011;46836;48.388;16.210;2023-03-16T02:31:16;5.45;;;3.45;;
45684;SDS011;46836;48.388;16.210;2023-03-16T02:33:45;4.45;;;3.72;;
45684;SDS011;46836;48.388;16.210;2023-03-16T02:36:16;4.30;;;3.53;;
45684;SDS011;46836;48.388;16.210;2023-03-16T02:38:44;4.53;;;3.40;;
45684;SDS011;46836;48.388;16.210;2023-03-16T02:41:13;5.30;;;3.78;;
45684;SDS011;46836;48.388;16.210;2023-03-16T02:43:43;3.90;;;3.60;;
45684;SDS011;46836;48.388;16.210;2023-03-16T02:46:18;4.78;;;3.63;;
45684;SDS011;46836;48.388;16.210;2023-03-16T02:48:50;4.68;;;3.80;;
45684;SDS011;46836;48.388;16.210;2023-03-16T02:51:25;3.65;;;3.33;;
45684;SDS011;46836;48.388;16.210;2023-03-16T02:53:52;4.20;;;3.67;;
45684;SDS011;46836;48.388;16.210;2023-03-16T02:56:19;4.60;;;3.78;;
45684;SDS011;46836;48.388;16.210;2023-03-16T02:58:47;4.13;;;3.70;;
45684;SDS011;46836;48.388;16.210;2023-03-16T03:01:15;5.05;;;3.85;;
45684;SDS011;46836;48.388;16.210;2023-03-16T03:03:42;8.10;;;4.07;;
45684;SDS011;46836;48.388;16.210;2023-03-16T03:06:09;5.32;;;3.20;;
45684;SDS011;46836;48.388;16.210;2023-03-16T03:08:36;5.47;;;3.70;;
45684;SDS011;46836;48.388;16.210;2023-03-16T03:11:04;4.13;;;3.53;;
45684;SDS011;46836;48.388;16.210;2023-03-16T03:13:31;4.93;;;4.10;;
45684;SDS011;46836;48.388;16.210;2023-03-16T03:15:58;5.32;;;4.15;;
45684;SDS011;46836;48.388;16.210;2023-03-16T03:18:25;4.60;;;3.47;;
45684;SDS011;46836;48.388;16.210;2023-03-16T03:20:55;4.28;;;3.78;;
45684;SDS011;46836;48.388;16.210;2023-03-16T03:23:22;3.70;;;3.40;;
45684;SDS011;46836;48.388;16.210;2023-03-16T03:25:49;6.45;;;3.30;;
45684;SDS011;46836;48.388;16.210;2023-03-16T03:28:16;6.03;;;4.30;;
45684;SDS011;46836;48.388;16.210;2023-03-16T03:30:43;3.40;;;3.05;;
45684;SDS011;46836;48.388;16.210;2023-03-16T03:33:10;9.75;;;3.90;;
45684;SDS011;46836;48.388;16.210;2023-03-16T03:35:38;7.07;;;4.10;;
45684;SDS011;46836;48.388;16.210;2023-03-16T03:38:07;5.65;;;3.80;;
45684;SDS011;46836;48.388;16.210;2023-03-16T03:40:34;5.53;;;3.97;;
45684;SDS011;46836;48.388;16.210;2023-03-16T03:43:02;4.40;;;3.30;;
45684;SDS011;46836;48.388;16.210;2023-03-16T03:45:30;4.40;;;3.65;;
45684;SDS011;46836;48.388;16.210;2023-03-16T03:47:57;5.43;;;4.00;;
45684;SDS011;46836;48.388;16.210;2023-03-16T03:50:24;4.82;;;3.92;;
45684;SDS011;46836;48.388;16.210;2023-03-16T03:52:52;4.20;;;3.22;;
45684;SDS011;46836;48.388;16.210;2023-03-16T03:55:19;3.85;;;3.40;;
45684;SDS011;46836;48.388;16.210;2023-03-16T03:57:46;4.07;;;3.70;;
45684;SDS011;46836;48.388;16.210;2023-03-16T04:00:13;5.88;;;4.15;;
45684;SDS011;46836;48.388;16.210;2023-03-16T04:02:40;4.43;;;4.03;;
45684;SDS011;46836;48.388;16.210;2023-03-16T04:05:07;7.50;;;3.67;;
45684;SDS011;46836;48.388;16.210;2023-03-16T04:07:35;6.07;;;3.55;;
45684;SDS011;46836;48.388;16.210;2023-03-16T04:10:02;4.97;;;3.92;;
45684;SDS011;46836;48.388;16.210;2023-03-16T04:12:29;4.60;;;3.85;;
45684;SDS011;46836;48.388;16.210;2023-03-16T04:14:56;5.43;;;3.40;;
45684;SDS011;46836;48.388;16.210;2023-03-16T04:17:23;6.40;;;4.35;;
45684;SDS011;46836;48.388;16.210;2023-03-16T04:19:51;4.90;;;3.60;;
45684;SDS011;46836;48.388;16.210;2023-03-16T04:22:18;6.10;;;4.32;;
45684;SDS011;46836;48.388;16.210;2023-03-16T04:24:45;5.18;;;3.90;;
45684;SDS011;46836;48.388;16.210;2023-03-16T04:27:12;4.75;;;4.35;;
45684;SDS011;46836;48.388;16.210;2023-03-16T04:29:39;4.38;;;3.85;;
45684;SDS011;46836;48.388;16.210;2023-03-16T04:32:06;4.35;;;3.92;;
45684;SDS011;46836;48.388;16.210;2023-03-16T04:34:33;10.82;;;3.45;;
45684;SDS011;46836;48.388;16.210;2023-03-16T04:37:01;4.65;;;4.25;;
45684;SDS011;46836;48.388;16.210;2023-03-16T04:39:28;5.38;;;4.03;;
45684;SDS011;46836;48.388;16.210;2023-03-16T04:41:55;4.53;;;3.53;;
45684;SDS011;46836;48.388;16.210;2023-03-16T04:44:22;5.20;;;4.13;;
45684;SDS011;46836;48.388;16.210;2023-03-16T04:46:51;3.97;;;2.80;;
45684;SDS011;46836;48.388;16.210;2023-03-16T04:49:18;4.85;;;3.65;;
45684;SDS011;46836;48.388;16.210;2023-03-16T04:51:45;4.80;;;3.40;;
45684;SDS011;46836;48.388;16.210;2023-03-16T04:54:12;8.70;;;3.75;;
45684;SDS011;46836;48.388;16.210;2023-03-16T04:56:39;3.47;;;3.10;;
45684;SDS011;46836;48.388;16.210;2023-03-16T04:59:07;4.78;;;3.75;;
45684;SDS011;46836;48.388;16.210;2023-03-16T05:01:34;5.88;;;4.13;;
45684;SDS011;46836;48.388;16.210;2023-03-16T05:04:01;7.20;;;3.72;;
45684;SDS011;46836;48.388;16.210;2023-03-16T05:06:28;5.55;;;4.70;;
45684;SDS011;46836;48.388;16.210;2023-03-16T05:08:57;8.07;;;4.07;;
45684;SDS011;46836;48.388;16.210;2023-03-16T05:11:26;5.13;;;4.07;;
45684;SDS011;46836;48.388;16.210;2023-03-16T05:13:53;5.15;;;3.75;;
45684;SDS011;46836;48.388;16.210;2023-03-16T05:16:20;8.13;;;4.85;;
45684;SDS011;46836;48.388;16.210;2023-03-16T05:18:47;6.22;;;4.43;;
45684;SDS011;46836;48.388;16.210;2023-03-16T05:21:14;4.63;;;4.07;;
45684;SDS011;46836;48.388;16.210;2023-03-16T05:23:41;4.28;;;3.88;;
45684;SDS011;46836;48.388;16.210;2023-03-16T05:26:09;5.20;;;3.75;;
45684;SDS011;46836;48.388;16.210;2023-03-16T05:28:36;5.00;;;3.80;;
45684;SDS011;46836;48.388;16.210;2023-03-16T05:31:03;3.75;;;3.13;;
45684;SDS011;46836;48.388;16.210;2023-03-16T05:33:31;4.75;;;3.83;;
45684;SDS011;46836;48.388;16.210;2023-03-16T05:35:58;5.63;;;3.97;;
45684;SDS011;46836;48.388;16.210;2023-03-16T05:38:25;5.80;;;4.00;;
45684;SDS011;46836;48.388;16.210;2023-03-16T05:40:52;16.52;;;7.70;;
45684;SDS011;46836;48.388;16.210;2023-03-16T05:43:20;5.35;;;4.05;;
45684;SDS011;46836;48.388;16.210;2023-03-16T05:45:47;15.20;;;5.32;;
45684;SDS011;46836;48.388;16.210;2023-03-16T05:48:14;7.72;;;5.50;;
45684;SDS011;46836;48.388;16.210;2023-03-16T05:50:41;9.65;;;6.95;;
45684;SDS011;46836;48.388;16.210;2023-03-16T05:53:08;7.88;;;6.75;;
45684;SDS011;46836;48.388;16.210;2023-03-16T05:55:35;6.32;;;4.90;;
45684;SDS011;46836;48.388;16.210;2023-03-16T05:58:02;5.72;;;4.70;;
45684;SDS011;46836;48.388;16.210;2023-03-16T06:00:31;5.85;;;3.63;;
45684;SDS011;46836;48.388;16.210;2023-03-16T06:02:58;6.15;;;4.80;;
45684;SDS011;46836;48.388;16.210;2023-03-16T06:05:25;6.05;;;4.53;;
45684;SDS011;46836;48.388;16.210;2023-03-16T06:07:53;11.00;;;5.13;;
45684;SDS011;46836;48.388;16.210;2023-03-16T06:10:20;5.75;;;5.00;;
45684;SDS011;46836;48.388;16.210;2023-03-16T06:12:48;4.43;;;4.00;;
45684;SDS011;46836;48.388;16.210;2023-03-16T06:15:15;5.80;;;4.50;;
45684;SDS011;46836;48.388;16.210;2023-03-16T06:17:42;5.55;;;4.45;;
45684;SDS011;46836;48.388;16.210;2023-03-16T06:20:10;3.85;;;3.50;;
45684;SDS011;46836;48.388;16.210;2023-03-16T06:22:42;5.80;;;4.70;;
45684;SDS011;46836;48.388;16.210;2023-03-16T06:25:10;5.35;;;3.90;;
45684;SDS011;46836;48.388;16.210;2023-03-16T06:27:38;9.05;;;5.05;;
45684;SDS011;46836;48.388;16.210;2023-03-16T06:30:06;5.97;;;4.25;;
45684;SDS011;46836;48.388;16.210;2023-03-16T06:32:35;7.10;;;4.75;;
45684;SDS011;46836;48.388;16.210;2023-03-16T06:35:03;8.65;;;4.63;;
45684;SDS011;46836;48.388;16.210;2023-03-16T06:37:31;9.05;;;5.15;;
45684;SDS011;46836;48.388;16.210;2023-03-16T06:39:58;6.20;;;4.32;;
45684;SDS011;46836;48.388;16.210;2023-03-16T06:42:25;5.85;;;4.35;;
45684;SDS011;46836;48.388;16.210;2023-03-16T06:44:52;4.43;;;3.97;;
45684;SDS011;46836;48.388;16.210;2023-03-16T06:47:19;7.22;;;4.70;;
45684;SDS011;46836;48.388;16.210;2023-03-16T06:49:46;18.65;;;4.90;;
45684;SDS011;46836;48.388;16.210;2023-03-16T06:52:14;6.97;;;4.65;;
45684;SDS011;46836;48.388;16.210;2023-03-16T06:54:41;4.78;;;4.38;;
45684;SDS011;46836;48.388;16.210;2023-03-16T06:57:08;4.82;;;4.20;;
45684;SDS011;46836;48.388;16.210;2023-03-16T06:59:35;4.88;;;3.53;;
45684;SDS011;46836;48.388;16.210;2023-03-16T07:02:02;4.22;;;3.47;;
45684;SDS011;46836;48.388;16.210;2023-03-16T07:04:29;7.53;;;4.20;;
45684;SDS011;46836;48.388;16.210;2023-03-16T07:06:56;5.18;;;4.40;;
45684;SDS011;46836;48.388;16.210;2023-03-16T07:09:23;5.05;;;4.55;;
45684;SDS011;46836;48.388;16.210;2023-03-16T07:11:50;4.90;;;4.38;;
45684;SDS011;46836;48.388;16.210;2023-03-16T07:14:18;7.78;;;4.60;;
45684;SDS011;46836;48.388;16.210;2023-03-16T07:16:46;8.63;;;5.53;;
45684;SDS011;46836;48.388;16.210;2023-03-16T07:19:13;11.02;;;5.10;;
45684;SDS011;46836;48.388;16.210;2023-03-16T07:21:40;9.00;;;5.40;;
45684;SDS011;46836;48.388;16.210;2023-03-16T07:24:07;10.40;;;5.60;;
45684;SDS011;46836;48.388;16.210;2023-03-16T07:26:36;5.95;;;4.70;;
45684;SDS011;46836;48.388;16.210;2023-03-16T07:29:03;6.70;;;5.03;;
45684;SDS011;46836;48.388;16.210;2023-03-16T07:31:32;7.50;;;4.97;;
45684;SDS011;46836;48.388;16.210;2023-03-16T07:34:00;6.35;;;5.10;;
45684;SDS011;46836;48.388;16.210;2023-03-16T07:36:28;5.75;;;4.22;;
45684;SDS011;46836;48.388;16.210;2023-03-16T07:38:56;13.23;;;5.60;;
45684;SDS011;46836;48.388;16.210;2023-03-16T07:41:23;9.15;;;6.25;;
45684;SDS011;46836;48.388;16.210;2023-03-16T07:43:50;5.40;;;4.90;;
45684;SDS011;46836;48.388;16.210;2023-03-16T07:46:18;7.15;;;5.38;;
45684;SDS011;46836;48.388;16.210;2023-03-16T07:48:45;7.20;;;5.80;;
45684;SDS011;46836;48.388;16.210;2023-03-16T07:51:13;6.93;;;5.05;;
45684;SDS011;46836;48.388;16.210;2023-03-16T07:53:40;6.55;;;4.72;;
45684;SDS011;46836;48.388;16.210;2023-03-16T07:56:07;8.38;;;6.03;;
45684;SDS011;46836;48.388;16.210;2023-03-16T07:58:35;7.20;;;5.35;;
45684;SDS011;46836;48.388;16.210;2023-03-16T08:01:02;6.00;;;4.53;;
45684;SDS011;46836;48.388;16.210;2023-03-16T08:03:29;8.63;;;5.03;;
45684;SDS011;46836;48.388;16.210;2023-03-16T08:05:57;7.60;;;5.20;;
45684;SDS011;46836;48.388;16.210;2023-03-16T08:08:24;8.85;;;5.53;;
45684;SDS011;46836;48.388;16.210;2023-03-16T08:10:52;9.50;;;5.18;;
45684;SDS011;46836;48.388;16.210;2023-03-16T08:13:21;6.35;;;5.53;;
45684;SDS011;46836;48.388;16.210;2023-03-16T08:15:49;9.85;;;5.78;;
45684;SDS011;46836;48.388;16.210;2023-03-16T08:18:27;7.82;;;5.10;;
45684;SDS011;46836;48.388;16.210;2023-03-16T08:20:55;8.25;;;5.43;;
45684;SDS011;46836;48.388;16.210;2023-03-16T08:23:23;6.20;;;5.60;;
45684;SDS011;46836;48.388;16.210;2023-03-16T08:25:54;7.97;;;5.63;;
45684;SDS011;46836;48.388;16.210;2023-03-16T08:28:22;8.50;;;5.88;;
45684;SDS011;46836;48.388;16.210;2023-03-16T08:30:52;9.48;;;6.10;;
45684;SDS011;46836;48.388;16.210;2023-03-16T08:33:19;8.35;;;6.15;;
45684;SDS011;46836;48.388;16.210;2023-03-16T08:35:48;7.80;;;6.00;;
45684;SDS011;46836;48.388;16.210;2023-03-16T08:38:16;6.50;;;5.65;;
45684;SDS011;46836;48.388;16.210;2023-03-16T08:40:44;8.60;;;6.50;;
45684;SDS011;46836;48.388;16.210;2023-03-16T08:43:15;10.35;;;5.82;;
45684;SDS011;46836;48.388;16.210;2023-03-16T08:45:43;10.73;;;6.03;;
45684;SDS011;46836;48.388;16.210;2023-03-16T08:48:11;7.68;;;5.15;;
45684;SDS011;46836;48.388;16.210;2023-03-16T08:50:40;6.30;;;5.32;;
45684;SDS011;46836;48.388;16.210;2023-03-16T08:53:09;9.57;;;5.20;;
45684;SDS011;46836;48.388;16.210;2023-03-16T08:55:39;6.60;;;5.15;;
45684;SDS011;46836;48.388;16.210;2023-03-16T08:58:07;8.40;;;5.53;;
45684;SDS011;46836;48.388;16.210;2023-03-16T09:00:35;7.55;;;5.00;;
45684;SDS011;46836;48.388;16.210;2023-03-16T09:03:04;6.63;;;4.85;;
45684;SDS011;46836;48.388;16.210;2023-03-16T09:05:31;9.32;;;6.05;;
45684;SDS011;46836;48.388;16.210;2023-03-16T09:07:59;6.82;;;5.10;;
45684;SDS011;46836;48.388;16.210;2023-03-16T09:10:27;7.35;;;5.20;;
45684;SDS011;46836;48.388;16.210;2023-03-16T09:12:54;7.10;;;4.82;;
45684;SDS011;46836;48.388;16.210;2023-03-16T09:15:22;10.98;;;5.40;;
45684;SDS011;46836;48.388;16.210;2023-03-16T09:17:49;5.65;;;4.70;;
45684;SDS011;46836;48.388;16.210;2023-03-16T09:20:16;12.43;;;4.88;;
45684;SDS011;46836;48.388;16.210;2023-03-16T09:22:53;11.38;;;4.60;;
45684;SDS011;46836;48.388;16.210;2023-03-16T09:25:21;7.80;;;4.60;;
45684;SDS011;46836;48.388;16.210;2023-03-16T09:27:50;6.30;;;4.63;;
45684;SDS011;46836;48.388;16.210;2023-03-16T09:30:18;8.15;;;5.55;;
45684;SDS011;46836;48.388;16.210;2023-03-16T09:32:45;6.75;;;5.15;;
45684;SDS011;46836;48.388;16.210;2023-03-16T09:35:14;7.32;;;3.90;;
45684;SDS011;46836;48.388;16.210;2023-03-16T09:37:41;4.38;;;3.95;;
45684;SDS011;46836;48.388;16.210;2023-03-16T09:40:22;6.38;;;4.25;;
45684;SDS011;46836;48.388;16.210;2023-03-16T09:42:59;7.72;;;4.70;;
45684;SDS011;46836;48.388;16.210;2023-03-16T09:46:08;6.53;;;3.80;;
45684;SDS011;46836;48.388;16.210;2023-03-16T09:49:00;6.45;;;3.88;;
45684;SDS011;46836;48.388;16.210;2023-03-16T09:54:07;7.10;;;4.70;;
45684;SDS011;46836;48.388;16.210;2023-03-16T09:56:57;7.30;;;4.88;;
45684;SDS011;46836;48.388;16.210;2023-03-16T09:59:27;6.13;;;4.97;;
45684;SDS011;46836;48.388;16.210;2023-03-16T10:10:19;7.28;;;5.35;;
45684;SDS011;46836;48.388;16.210;2023-03-16T10:12:50;5.88;;;4.50;;
45684;SDS011;46836;48.388;16.210;2023-03-16T10:15:21;6.22;;;4.47;;
45684;SDS011;46836;48.388;16.210;2023-03-16T10:17:58;5.80;;;4.95;;
45684;SDS011;46836;48.388;16.210;2023-03-16T10:20:30;7.78;;;4.63;;
45684;SDS011;46836;48.388;16.210;2023-03-16T10:23:00;9.43;;;4.75;;
45684;SDS011;46836;48.388;16.210;2023-03-16T10:25:49;5.15;;;4.45;;
45684;SDS011;46836;48.388;16.210;2023-03-16T10:28:19;5.15;;;4.00;;
45684;SDS011;46836;48.388;16.210;2023-03-16T10:30:49;7.65;;;4.25;;
45684;SDS011;46836;48.388;16.210;2023-03-16T10:33:27;7.80;;;4.88;;
45684;SDS011;46836;48.388;16.210;2023-03-16T10:38:31;8.80;;;4.72;;
45684;SDS011;46836;48.388;16.210;2023-03-16T10:46:23;7.25;;;4.90;;
45684;SDS011;46836;48.388;16.210;2023-03-16T10:48:57;5.40;;;3.60;;
45684;SDS011;46836;48.388;16.210;2023-03-16T10:51:27;16.80;;;3.83;;
45684;SDS011;46836;48.388;16.210;2023-03-16T10:54:15;4.53;;;2.55;;
45684;SDS011;46836;48.388;16.210;2023-03-16T10:56:50;4.75;;;2.80;;
45684;SDS011;46836;48.388;16.210;2023-03-16T10:59:27;4.90;;;3.50;;
45684;SDS011;46836;48.388;16.210;2023-03-16T11:02:17;9.68;;;3.30;;
45684;SDS011;46836;48.388;16.210;2023-03-16T11:04:48;7.28;;;4.15;;
45684;SDS011;46836;48.388;16.210;2023-03-16T11:07:16;7.32;;;3.85;;
45684;SDS011;46836;48.388;16.210;2023-03-16T11:09:44;6.38;;;3.70;;
45684;SDS011;46836;48.388;16.210;2023-03-16T11:12:21;5.20;;;3.42;;
45684;SDS011;46836;48.388;16.210;2023-03-16T11:14:51;7.75;;;3.97;;
45684;SDS011;46836;48.388;16.210;2023-03-16T11:17:53;4.95;;;4.45;;
45684;SDS011;46836;48.388;16.210;2023-03-16T11:20:17;6.53;;;3.70;;
45684;SDS011;46836;48.388;16.210;2023-03-16T11:22:51;5.55;;;3.15;;
45684;SDS011;46836;48.388;16.210;2023-03-16T11:25:28;4.03;;;3.63;;
45684;SDS011;46836;48.388;16.210;2023-03-16T11:28:15;6.05;;;4.25;;
45684;SDS011;46836;48.388;16.210;2023-03-16T11:31:19;6.38;;;3.08;;
45684;SDS011;46836;48.388;16.210;2023-03-16T11:33:54;6.35;;;3.70;;
45684;SDS011;46836;48.388;16.210;2023-03-16T11:36:30;3.38;;;3.08;;
45684;SDS011;46836;48.388;16.210;2023-03-16T11:39:09;3.53;;;2.80;;
45684;SDS011;46836;48.388;16.210;2023-03-16T11:41:49;3.10;;;2.83;;
45684;SDS011;46836;48.388;16.210;2023-03-16T11:44:36;3.03;;;2.70;;
45684;SDS011;46836;48.388;16.210;2023-03-16T11:50:05;3.35;;;2.85;;
45684;SDS011;46836;48.388;16.210;2023-03-16T11:55:38;3.03;;;2.47;;
45684;SDS011;46836;48.388;16.210;2023-03-16T12:10:10;3.38;;;2.50;;
45684;SDS011;46836;48.388;16.210;2023-03-16T12:15:59;2.05;;;1.90;;
45684;SDS011;46836;48.388;16.210;2023-03-16T12:18:53;3.35;;;2.45;;
45684;SDS011;46836;48.388;16.210;2023-03-16T12:21:27;4.40;;;2.45;;
45684;SDS011;46836;48.388;16.210;2023-03-16T12:24:12;5.82;;;2.60;;
45684;SDS011;46836;48.388;16.210;2023-03-16T12:26:43;2.35;;;2.15;;
45684;SDS011;46836;48.388;16.210;2023-03-16T12:29:26;2.88;;;2.67;;
45684;SDS011;46836;48.388;16.210;2023-03-16T12:32:03;2.88;;;2.63;;
45684;SDS011;46836;48.388;16.210;2023-03-16T12:34:51;3.15;;;2.85;;
45684;SDS011;46836;48.388;16.210;2023-03-16T12:45:58;2.80;;;2.50;;
45684;SDS011;46836;48.388;16.210;2023-03-16T12:48:51;4.60;;;2.20;;
45684;SDS011;46836;48.388;16.210;2023-03-16T12:51:35;2.50;;;2.30;;
45684;SDS011;46836;48.388;16.210;2023-03-16T12:54:23;3.38;;;2.80;;
45684;SDS011;46836;48.388;16.210;2023-03-16T12:56:52;4.00;;;2.40;;
45684;SDS011;46836;48.388;16.210;2023-03-16T12:59:33;3.20;;;2.40;;
45684;SDS011;46836;48.388;16.210;2023-03-16T13:02:18;2.90;;;2.22;;
45684;SDS011;46836;48.388;16.210;2023-03-16T13:04:48;4.40;;;2.78;;
45684;SDS011;46836;48.388;16.210;2023-03-16T13:07:25;4.28;;;2.47;;
45684;SDS011;46836;48.388;16.210;2023-03-16T13:10:00;3.03;;;2.47;;
45684;SDS011;46836;48.388;16.210;2023-03-16T13:12:40;2.97;;;2.60;;
45684;SDS011;46836;48.388;16.210;2023-03-16T13:18:34;2.60;;;2.40;;
45684;SDS011;46836;48.388;16.210;2023-03-16T13:23:25;2.30;;;2.10;;
45684;SDS011;46836;48.388;16.210;2023-03-16T13:28:41;2.58;;;1.98;;
45684;SDS011;46836;48.388;16.210;2023-03-16T13:31:18;5.63;;;2.03;;
45684;SDS011;46836;48.388;16.210;2023-03-16T13:33:47;2.55;;;1.92;;
45684;SDS011;46836;48.388;16.210;2023-03-16T13:36:15;3.45;;;1.63;;
45684;SDS011;46836;48.388;16.210;2023-03-16T13:38:43;2.40;;;1.60;;
45684;SDS011;46836;48.388;16.210;2023-03-16T13:41:39;2.58;;;1.83;;
45684;SDS011;46836;48.388;16.210;2023-03-16T13:44:13;3.70;;;1.88;;
45684;SDS011;46836;48.388;16.210;2023-03-16T13:46:40;4.13;;;2.25;;
45684;SDS011;46836;48.388;16.210;2023-03-16T13:49:10;3.45;;;2.03;;
45684;SDS011;46836;48.388;16.210;2023-03-16T13:51:37;2.95;;;1.45;;
45684;SDS011;46836;48.388;16.210;2023-03-16T13:54:15;2.25;;;1.70;;
45684;SDS011;46836;48.388;16.210;2023-03-16T13:56:52;3.67;;;1.70;;
45684;SDS011;46836;48.388;16.210;2023-03-16T13:59:23;3.35;;;1.40;;
45684;SDS011;46836;48.388;16.210;2023-03-16T14:01:57;1.50;;;1.40;;
45684;SDS011;46836;48.388;16.210;2023-03-16T14:04:28;3.65;;;1.75;;
45684;SDS011;46836;48.388;16.210;2023-03-16T14:06:58;6.00;;;2.10;;
45684;SDS011;46836;48.388;16.210;2023-03-16T14:09:27;4.22;;;1.63;;
45684;SDS011;46836;48.388;16.210;2023-03-16T14:11:57;5.00;;;1.92;;
45684;SDS011;46836;48.388;16.210;2023-03-16T14:14:29;2.97;;;1.60;;
45684;SDS011;46836;48.388;16.210;2023-03-16T14:17:02;2.45;;;1.67;;
45684;SDS011;46836;48.388;16.210;2023-03-16T14:19:39;1.60;;;1.40;;
45684;SDS011;46836;48.388;16.210;2023-03-16T14:22:17;2.25;;;1.63;;
45684;SDS011;46836;48.388;16.210;2023-03-16T14:24:55;1.67;;;1.50;;
45684;SDS011;46836;48.388;16.210;2023-03-16T14:27:28;4.43;;;1.48;;
45684;SDS011;46836;48.388;16.210;2023-03-16T14:30:48;1.50;;;1.30;;
45684;SDS011;46836;48.388;16.210;2023-03-16T14:33:02;1.75;;;1.33;;
45684;SDS011;46836;48.388;16.210;2023-03-16T14:35:41;1.65;;;1.55;;
45684;SDS011;46836;48.388;16.210;2023-03-16T14:38:19;2.83;;;1.70;;
45684;SDS011;46836;48.388;16.210;2023-03-16T14:41:11;2.58;;;1.98;;
45684;SDS011;46836;48.388;16.210;2023-03-16T14:43:45;3.63;;;1.70;;
45684;SDS011;46836;48.388;16.210;2023-03-16T14:46:16;5.50;;;1.67;;
45684;SDS011;46836;48.388;16.210;2023-03-16T14:49:38;2.13;;;1.75;;
45684;SDS011;46836;48.388;16.210;2023-03-16T14:51:47;4.82;;;1.90;;
45684;SDS011;46836;48.388;16.210;2023-03-16T14:54:18;1.58;;;1.48;;
45684;SDS011;46836;48.388;16.210;2023-03-16T14:56:48;1.80;;;1.40;;
45684;SDS011;46836;48.388;16.210;2023-03-16T14:59:17;2.97;;;1.90;;
45684;SDS011;46836;48.388;16.210;2023-03-16T15:01:45;3.35;;;1.50;;
45684;SDS011;46836;48.388;16.210;2023-03-16T15:04:14;1.67;;;1.40;;
45684;SDS011;46836;48.388;16.210;2023-03-16T15:06:44;2.78;;;1.65;;
45684;SDS011;46836;48.388;16.210;2023-03-16T15:11:58;1.30;;;1.20;;
45684;SDS011;46836;48.388;16.210;2023-03-16T15:14:25;3.40;;;1.55;;
45684;SDS011;46836;48.388;16.210;2023-03-16T15:17:11;3.92;;;1.60;;
45684;SDS011;46836;48.388;16.210;2023-03-16T15:19:38;2.00;;;1.33;;
45684;SDS011;46836;48.388;16.210;2023-03-16T15:22:05;1.60;;;1.50;;
45684;SDS011;46836;48.388;16.210;2023-03-16T15:24:32;3.80;;;2.30;;
45684;SDS011;46836;48.388;16.210;2023-03-16T15:26:59;5.07;;;1.60;;
45684;SDS011;46836;48.388;16.210;2023-03-16T15:29:26;3.55;;;1.77;;
45684;SDS011;46836;48.388;16.210;2023-03-16T15:31:54;3.08;;;1.60;;
45684;SDS011;46836;48.388;16.210;2023-03-16T15:34:21;1.77;;;1.60;;
45684;SDS011;46836;48.388;16.210;2023-03-16T15:36:48;3.35;;;1.70;;
45684;SDS011;46836;48.388;16.210;2023-03-16T15:39:20;2.28;;;1.88;;
45684;SDS011;46836;48.388;16.210;2023-03-16T15:41:50;1.70;;;1.40;;
45684;SDS011;46836;48.388;16.210;2023-03-16T15:44:17;2.40;;;1.42;;
45684;SDS011;46836;48.388;16.210;2023-03-16T15:46:44;2.58;;;1.45;;
45684;SDS011;46836;48.388;16.210;2023-03-16T15:49:11;1.98;;;1.52;;
45684;SDS011;46836;48.388;16.210;2023-03-16T15:51:39;6.07;;;1.92;;
45684;SDS011;46836;48.388;16.210;2023-03-16T15:54:06;2.15;;;1.65;;
45684;SDS011;46836;48.388;16.210;2023-03-16T15:56:39;2.95;;;1.70;;
45684;SDS011;46836;48.388;16.210;2023-03-16T15:59:20;1.50;;;1.40;;
45684;SDS011;46836;48.388;16.210;2023-03-16T16:01:49;3.05;;;1.83;;
45684;SDS011;46836;48.388;16.210;2023-03-16T16:04:18;2.13;;;1.70;;
45684;SDS011;46836;48.388;16.210;2023-03-16T16:06:47;2.50;;;1.60;;
45684;SDS011;46836;48.388;16.210;2023-03-16T16:09:15;1.70;;;1.60;;